Time;durP1;ratioP1;P1;durP2;ratioP2;P2;SDS_P1;SDS_P2;PMS_P1;PMS_P2;Temp;Humidity;BMP_temperature;BMP_pressure;BME280_temperature;BME280_humidity;BME280_pressure;Samples;Min_cycle;Max_cycle;Signal;HPM_P1;HPM_P2
2020/12/10 00:00:31;;;;;;;13.73;9.35;;;16.00;54.40;;;;;;5063812;28;20064;-87
2020/12/10 00:02:58;;;;;;;9.80;8.07;;;16.00;54.30;;;;;;5090079;28;20072;-87
2020/12/10 00:05:43;;;;;;;10.57;8.55;;;16.00;54.30;;;;;;5063535;28;20044;-87
2020/12/10 00:08:10;;;;;;;10.80;8.65;;;16.00;54.40;;;;;;5043918;28;20048;-87
2020/12/10 00:10:56;;;;;;;11.00;8.82;;;16.00;54.40;;;;;;5081174;28;20040;-88
2020/12/10 00:13:22;;;;;;;10.18;8.30;;;16.10;54.40;;;;;;5053637;28;20089;-86
2020/12/10 00:15:48;;;;;;;10.73;8.50;;;16.00;54.40;;;;;;5076359;28;20051;-87
2020/12/10 00:18:33;;;;;;;13.27;8.88;;;16.00;54.50;;;;;;5051953;28;20062;-87
2020/12/10 00:20:59;;;;;;;10.07;8.48;;;16.00;54.40;;;;;;5026567;28;20056;-87
2020/12/10 00:23:25;;;;;;;13.25;8.77;;;16.00;54.30;;;;;;5075587;28;20111;-88
2020/12/10 00:26:11;;;;;;;11.05;8.73;;;16.00;54.30;;;;;;5039356;28;20044;-88
2020/12/10 00:28:36;;;;;;;11.10;8.70;;;16.00;54.30;;;;;;5039949;28;20371;-88
2020/12/10 00:31:02;;;;;;;12.07;8.30;;;16.10;54.30;;;;;;5092105;28;20059;-88
2020/12/10 00:33:28;;;;;;;11.88;8.55;;;16.00;54.30;;;;;;5076987;28;20857;-87
2020/12/10 00:36:14;;;;;;;11.70;9.15;;;16.00;54.40;;;;;;5065985;28;20040;-88
2020/12/10 00:38:59;;;;;;;10.82;8.35;;;16.00;54.50;;;;;;5065552;28;20048;-87
2020/12/10 00:41:45;;;;;;;11.68;8.50;;;15.90;54.50;;;;;;5053131;28;20051;-86
2020/12/10 00:44:31;;;;;;;10.55;8.40;;;16.00;54.50;;;;;;5083566;28;20070;-86
2020/12/10 00:47:18;;;;;;;11.38;8.85;;;16.00;54.50;;;;;;5069792;28;20063;-85
2020/12/10 00:49:44;;;;;;;10.80;8.38;;;16.00;54.50;;;;;;5094475;28;20044;-87
2020/12/10 00:52:30;;;;;;;11.00;8.40;;;16.00;54.50;;;;;;5109944;28;20111;-86
2020/12/10 00:55:15;;;;;;;10.45;8.65;;;16.00;54.50;;;;;;5060971;28;20490;-88
2020/12/10 00:57:42;;;;;;;12.00;8.88;;;15.90;54.40;;;;;;5080473;28;20232;-88
2020/12/10 01:00:08;;;;;;;11.48;9.15;;;16.00;54.50;;;;;;5106573;28;20044;-89
2020/12/10 01:02:33;;;;;;;11.65;9.10;;;16.00;54.50;;;;;;5058884;28;20146;-88
2020/12/10 01:04:59;;;;;;;10.85;8.63;;;16.00;54.60;;;;;;5074270;28;20124;-86
2020/12/10 01:07:48;;;;;;;12.90;9.43;;;15.90;54.70;;;;;;5068983;28;20036;-88
2020/12/10 01:10:14;;;;;;;10.10;8.63;;;15.90;54.70;;;;;;5079079;28;20043;-86
2020/12/10 01:12:41;;;;;;;12.15;8.88;;;15.90;54.70;;;;;;5078483;28;20048;-88
2020/12/10 01:15:26;;;;;;;11.57;8.57;;;15.90;54.70;;;;;;5069156;28;20050;-88
2020/12/10 01:18:13;;;;;;;12.07;9.05;;;15.90;54.60;;;;;;5061951;28;20044;-89
2020/12/10 01:20:58;;;;;;;10.63;8.50;;;15.90;54.60;;;;;;5077067;28;20091;-89
2020/12/10 01:23:24;;;;;;;13.35;8.98;;;15.90;54.70;;;;;;5059758;28;20060;-89
2020/12/10 01:25:50;;;;;;;11.85;8.63;;;15.90;54.70;;;;;;5074205;28;20103;-87
2020/12/10 01:28:16;;;;;;;10.65;8.43;;;15.90;54.70;;;;;;5060059;28;20039;-88
2020/12/10 01:30:41;;;;;;;11.32;9.10;;;15.90;54.90;;;;;;5053398;28;20032;-88
2020/12/10 01:33:07;;;;;;;10.15;8.30;;;15.90;54.70;;;;;;5052770;28;20148;-90
2020/12/10 01:35:33;;;;;;;12.63;8.98;;;16.00;54.70;;;;;;5045994;28;20040;-88
2020/12/10 01:37:58;;;;;;;11.10;8.65;;;16.00;54.70;;;;;;5075775;28;20048;-89
2020/12/10 01:40:24;;;;;;;13.32;9.05;;;15.90;54.70;;;;;;5056490;28;20056;-88
2020/12/10 01:43:10;;;;;;;10.95;8.75;;;15.90;54.70;;;;;;5065515;28;20077;-88
2020/12/10 01:45:36;;;;;;;10.85;8.75;;;15.90;54.80;;;;;;5075823;28;20039;-88
2020/12/10 01:48:02;;;;;;;11.38;8.80;;;15.90;54.70;;;;;;5076480;28;20043;-88
2020/12/10 01:50:28;;;;;;;10.15;8.52;;;15.90;54.70;;;;;;5042419;28;20047;-89
2020/12/10 01:53:14;;;;;;;11.60;8.75;;;15.90;54.70;;;;;;5077049;28;20105;-88
2020/12/10 01:55:59;;;;;;;10.88;8.57;;;15.90;54.70;;;;;;5062292;28;20050;-88
2020/12/10 01:58:25;;;;;;;10.82;8.32;;;15.90;54.80;;;;;;5102959;28;20399;-88
2020/12/10 02:00:52;;;;;;;10.30;8.40;;;15.90;54.90;;;;;;5039556;28;20032;-88
2020/12/10 02:03:18;;;;;;;10.93;8.88;;;15.90;54.80;;;;;;5082814;28;20036;-88
2020/12/10 02:06:03;;;;;;;10.48;8.57;;;15.90;54.80;;;;;;5082055;28;20043;-88
2020/12/10 02:08:29;;;;;;;10.93;8.32;;;15.90;54.90;;;;;;5071642;28;20105;-89
2020/12/10 02:11:15;;;;;;;11.77;8.95;;;15.90;54.90;;;;;;5031154;28;20044;-90
2020/12/10 02:13:41;;;;;;;11.75;8.52;;;15.90;55.50;;;;;;5078112;28;20058;-89
2020/12/10 02:20:29;;;;;;;9.77;8.27;;;15.90;54.90;;;;;;5107700;28;20035;-89
2020/12/10 02:23:13;;;;;;;9.90;8.18;;;15.80;55.00;;;;;;5082293;28;20132;-88
2020/12/10 02:25:39;;;;;;;11.88;8.90;;;15.90;55.00;;;;;;5061971;28;20028;-89
2020/12/10 02:28:09;;;;;;;10.63;8.68;;;15.80;54.90;;;;;;5048143;28;20479;-88
2020/12/10 02:30:34;;;;;;;12.75;9.13;;;15.80;54.90;;;;;;5040200;28;20097;-90
2020/12/10 02:33:20;;;;;;;12.73;8.57;;;15.80;55.00;;;;;;5037585;28;20128;-87
2020/12/10 02:35:46;;;;;;;9.90;8.30;;;15.80;55.00;;;;;;5078892;28;20115;-87
2020/12/10 02:38:12;;;;;;;8.98;7.93;;;15.70;55.00;;;;;;5044364;28;20040;-87
2020/12/10 02:40:45;;;;;;;10.32;8.60;;;15.80;55.00;;;;;;5060309;28;20043;-87
2020/12/10 02:43:12;;;;;;;10.30;8.35;;;15.80;55.10;;;;;;5053473;28;20062;-87
2020/12/10 02:45:57;;;;;;;12.48;9.02;;;15.90;55.10;;;;;;5046737;28;20052;-87
2020/12/10 02:48:25;;;;;;;11.27;8.80;;;15.80;55.00;;;;;;5077988;28;20047;-87
2020/12/10 02:50:51;;;;;;;10.25;8.55;;;15.80;55.00;;;;;;5076791;28;20048;-87
2020/12/10 02:53:17;;;;;;;10.52;8.48;;;15.80;55.60;;;;;;5073673;28;20043;-87
2020/12/10 02:55:42;;;;;;;11.13;8.90;;;15.90;55.00;;;;;;5056967;28;20103;-87
2020/12/10 02:58:08;;;;;;;10.18;8.63;;;15.60;55.00;;;;;;5059995;28;20122;-87
2020/12/10 03:00:34;;;;;;;10.57;8.45;;;15.80;55.10;;;;;;5042115;28;20043;-87
2020/12/10 03:03:19;;;;;;;11.52;8.68;;;15.80;55.10;;;;;;5046278;28;20043;-86
2020/12/10 03:06:06;;;;;;;10.05;8.35;;;15.80;55.00;;;;;;5061669;28;20058;-87
2020/12/10 03:08:32;;;;;;;12.43;9.40;;;15.80;55.00;;;;;;5058591;28;20064;-87
2020/12/10 03:11:17;;;;;;;11.38;8.77;;;15.90;54.90;;;;;;5047938;28;20047;-87
2020/12/10 03:14:03;;;;;;;10.63;8.65;;;15.80;55.00;;;;;;5089929;28;20113;-86
2020/12/10 03:16:29;;;;;;;10.25;8.80;;;15.80;55.00;;;;;;5058328;28;20844;-85
2020/12/10 03:18:54;;;;;;;12.07;9.10;;;15.80;55.10;;;;;;5040575;28;20044;-85
2020/12/10 03:21:20;;;;;;;11.43;8.73;;;15.80;55.10;;;;;;5055167;28;20159;-86
2020/12/10 03:23:46;;;;;;;11.48;8.45;;;15.90;55.10;;;;;;5073412;28;20048;-86
2020/12/10 03:26:11;;;;;;;11.52;8.40;;;15.80;55.10;;;;;;5051525;28;20368;-86
2020/12/10 03:28:37;;;;;;;10.52;8.43;;;15.80;55.10;;;;;;5063648;28;20125;-87
2020/12/10 03:31:03;;;;;;;10.45;8.63;;;15.80;55.00;;;;;;5041901;28;21810;-87
2020/12/10 03:33:28;;;;;;;9.98;8.30;;;15.70;55.00;;;;;;5078612;28;20467;-87
2020/12/10 03:35:54;;;;;;;10.73;8.25;;;15.80;55.00;;;;;;5060931;28;20032;-86
2020/12/10 03:38:20;;;;;;;10.77;8.50;;;15.80;55.00;;;;;;5089258;28;20131;-88
2020/12/10 03:40:45;;;;;;;10.30;8.15;;;15.80;55.10;;;;;;5054525;28;20089;-87
2020/12/10 03:43:31;;;;;;;11.15;8.65;;;15.80;55.10;;;;;;5067940;28;20050;-87
2020/12/10 03:45:57;;;;;;;11.93;8.95;;;15.70;55.00;;;;;;5061308;28;20511;-87
2020/12/10 03:48:23;;;;;;;10.93;8.70;;;15.80;55.00;;;;;;5061664;28;20047;-87
2020/12/10 03:50:49;;;;;;;13.32;9.50;;;15.80;55.00;;;;;;5059490;28;20048;-86
2020/12/10 03:53:15;;;;;;;11.93;8.73;;;15.70;55.00;;;;;;5077593;28;20097;-88
2020/12/10 03:55:40;;;;;;;11.55;8.90;;;15.70;55.00;;;;;;5061415;28;20097;-87
2020/12/10 03:58:06;;;;;;;10.50;7.88;;;15.70;55.10;;;;;;5057592;28;20460;-87
2020/12/10 04:00:32;;;;;;;10.48;7.95;;;15.70;55.20;;;;;;5056494;28;20040;-87
2020/12/10 04:02:57;;;;;;;11.63;9.05;;;15.70;55.20;;;;;;5097252;28;20514;-88
2020/12/10 04:05:23;;;;;;;10.45;8.45;;;15.60;55.10;;;;;;5045466;28;20507;-87
2020/12/10 04:08:09;;;;;;;11.43;8.50;;;15.70;55.10;;;;;;5077733;28;20138;-86
2020/12/10 04:10:34;;;;;;;10.43;8.70;;;15.70;55.10;;;;;;5075458;28;20190;-86
2020/12/10 04:13:01;;;;;;;11.52;8.43;;;15.70;55.10;;;;;;5061906;28;20052;-87
2020/12/10 04:15:47;;;;;;;11.07;8.70;;;15.70;55.10;;;;;;5037706;28;20546;-88
2020/12/10 04:18:37;;;;;;;12.50;8.77;;;15.70;55.20;;;;;;5059640;28;20497;-86
2020/12/10 04:21:02;;;;;;;10.32;8.70;;;15.70;55.10;;;;;;5076818;28;20521;-86
2020/12/10 04:23:29;;;;;;;11.43;8.88;;;15.80;55.70;;;;;;5092679;28;20068;-86
2020/12/10 04:26:15;;;;;;;10.98;8.95;;;15.70;55.10;;;;;;5054530;28;20094;-87
2020/12/10 04:28:41;;;;;;;11.85;8.98;;;15.80;55.10;;;;;;5041987;28;20047;-86
2020/12/10 04:31:07;;;;;;;13.95;9.27;;;15.70;55.10;;;;;;5075751;28;20040;-86
2020/12/10 04:38:38;;;;;;;13.43;9.52;;;15.70;55.30;;;;;;4964039;28;20047;-86
2020/12/10 04:42:06;;;;;;;10.25;8.10;;;15.60;55.40;;;;;;4970347;28;20047;-86
2020/12/10 04:45:47;;;;;;;;;;;;;;;;;;;;;
2020/12/10 04:49:10;;;;;;;;;;;;;;;;;;;;;
2020/12/10 04:56:49;;;;;;;13.10;9.27;;;15.50;55.30;;;;;;4862140;29;20092;-86
2020/12/10 05:00:09;;;;;;;10.00;8.18;;;15.60;55.30;;;;;;4860209;29;20049;-85
2020/12/10 05:03:23;;;;;;;12.10;9.35;;;15.80;55.50;;;;;;4870437;29;20049;-86
2020/12/10 05:06:21;;;;;;;13.25;9.02;;;15.70;55.50;;;;;;4843854;29;20105;-85
2020/12/10 05:09:16;;;;;;;11.38;8.93;;;15.70;55.40;;;;;;4884700;29;20076;-85
2020/12/10 05:12:07;;;;;;;11.55;8.90;;;15.60;55.50;;;;;;4918114;29;20079;-87
2020/12/10 05:15:07;;;;;;;10.60;8.73;;;15.60;55.40;;;;;;4932284;29;20064;-86
2020/12/10 05:18:51;;;;;;;12.63;9.13;;;15.60;55.50;;;;;;4947586;28;20051;-87
2020/12/10 05:26:31;;;;;;;11.93;9.27;;;15.60;55.60;;;;;;4811004;29;20082;-86
2020/12/10 05:33:37;;;;;;;12.82;9.60;;;15.60;55.70;;;;;;4776906;30;20050;-86
2020/12/10 05:37:07;;;;;;;11.60;9.00;;;15.50;55.80;;;;;;4778395;29;20047;-86
2020/12/10 05:46:31;;;;;;;12.90;8.48;;;15.50;55.50;;;;;;4730894;30;20045;-83
2020/12/10 05:48:59;;;;;;;11.82;8.80;;;15.60;55.40;;;;;;4728718;30;20485;-85
2020/12/10 05:51:24;;;;;;;12.07;8.75;;;15.60;55.50;;;;;;4760757;30;20075;-86
2020/12/10 05:53:50;;;;;;;11.85;8.57;;;15.60;55.60;;;;;;4763029;30;20048;-86
2020/12/10 05:56:17;;;;;;;10.10;8.25;;;15.50;55.50;;;;;;4760002;30;20081;-85
2020/12/10 05:58:47;;;;;;;11.98;8.88;;;15.50;55.60;;;;;;4780530;29;20055;-84
2020/12/10 06:01:33;;;;;;;13.40;9.85;;;15.30;55.80;;;;;;4796752;29;20207;-87
2020/12/10 06:03:59;;;;;;;11.27;8.90;;;15.30;56.10;;;;;;4866175;29;20060;-86
2020/12/10 06:06:28;;;;;;;11.63;8.65;;;15.40;56.20;;;;;;4891626;29;20420;-86
2020/12/10 06:09:04;;;;;;;12.52;8.82;;;15.40;56.00;;;;;;4853538;29;20052;-85
2020/12/10 06:12:02;;;;;;;12.23;9.82;;;15.60;55.80;;;;;;4909564;29;20045;-86
2020/12/10 06:14:27;;;;;;;13.07;8.80;;;15.90;55.00;;;;;;4907510;29;20054;-86
2020/12/10 06:17:13;;;;;;;13.00;8.32;;;16.00;54.60;;;;;;4903519;29;20092;-86
2020/12/10 06:19:59;;;;;;;11.18;8.35;;;16.00;54.50;;;;;;4968430;28;20061;-87
2020/12/10 06:22:32;;;;;;;11.57;8.48;;;16.10;54.30;;;;;;5013972;28;20052;-86
2020/12/10 06:25:27;;;;;;;11.68;8.35;;;16.30;54.40;;;;;;5043993;28;20049;-85
2020/12/10 06:28:19;;;;;;;13.20;8.90;;;16.60;53.30;;;;;;5062367;28;20045;-85
2020/12/10 06:31:08;;;;;;;12.10;8.77;;;16.80;52.80;;;;;;5080151;28;20116;-86
2020/12/10 06:33:54;;;;;;;12.02;8.55;;;17.00;52.10;;;;;;5023864;28;20052;-89
2020/12/10 06:36:23;;;;;;;11.90;8.32;;;17.20;52.00;;;;;;5064427;28;20033;-89
2020/12/10 06:38:50;;;;;;;12.80;8.73;;;17.40;51.60;;;;;;5064203;28;20036;-87
2020/12/10 06:41:36;;;;;;;11.45;8.40;;;17.40;51.40;;;;;;5032767;28;20055;-88
2020/12/10 06:44:02;;;;;;;12.20;8.90;;;17.30;51.50;;;;;;5055537;28;20044;-88
2020/12/10 06:46:52;;;;;;;14.15;8.80;;;17.10;51.70;;;;;;5052124;28;20033;-85
2020/12/10 06:49:28;;;;;;;14.20;8.82;;;17.20;52.00;;;;;;5083636;28;20052;-83
2020/12/10 06:52:20;;;;;;;12.18;8.80;;;17.30;52.30;;;;;;5076744;28;20884;-83
2020/12/10 06:55:08;;;;;;;23.15;13.52;;;17.50;52.00;;;;;;5034749;28;20418;-83
2020/12/10 06:57:48;;;;;;;22.23;12.75;;;17.60;50.70;;;;;;5073616;28;20044;-86
2020/12/10 07:00:54;;;;;;;20.23;12.20;;;17.90;49.90;;;;;;5064350;28;20046;-87
2020/12/10 07:03:27;;;;;;;17.52;11.57;;;18.00;50.20;;;;;;4973254;28;20047;-85
2020/12/10 07:06:18;;;;;;;20.73;11.68;;;17.90;50.10;;;;;;4975639;28;20050;-85
2020/12/10 07:09:09;;;;;;;25.75;12.75;;;18.00;50.30;;;;;;5004154;28;20043;-83
2020/12/10 07:11:36;;;;;;;19.58;11.32;;;18.10;50.20;;;;;;4953633;28;20046;-84
2020/12/10 07:14:26;;;;;;;19.38;12.00;;;18.20;50.20;;;;;;4991233;28;20038;-87
2020/12/10 07:16:52;;;;;;;18.77;12.32;;;18.40;50.10;;;;;;4990069;28;20044;-85
2020/12/10 07:19:18;;;;;;;17.60;10.65;;;18.40;50.20;;;;;;4990385;28;20042;-87
2020/12/10 07:21:44;;;;;;;19.63;11.02;;;18.40;50.50;;;;;;5006969;28;20101;-86
2020/12/10 07:24:10;;;;;;;19.20;10.48;;;18.50;50.50;;;;;;4992916;28;20045;-86
2020/12/10 07:26:38;;;;;;;17.83;10.50;;;18.60;50.40;;;;;;4972123;28;20046;-85
2020/12/10 07:29:06;;;;;;;17.60;10.80;;;18.80;50.40;;;;;;4981116;28;20045;-87
2020/12/10 07:31:32;;;;;;;16.10;10.35;;;18.90;50.20;;;;;;5004098;28;20102;-86
2020/12/10 07:33:58;;;;;;;21.85;10.73;;;18.90;50.10;;;;;;4996369;28;20046;-83
2020/12/10 07:36:24;;;;;;;22.42;10.70;;;19.10;49.90;;;;;;5003951;28;20130;-84
2020/12/10 07:39:10;;;;;;;24.45;10.38;;;19.40;49.40;;;;;;5028593;28;20051;-83
2020/12/10 07:41:37;;;;;;;24.98;11.40;;;19.70;48.70;;;;;;5071791;28;20441;-83
2020/12/10 07:44:27;;;;;;;18.08;11.70;;;19.80;48.20;;;;;;5048210;28;20091;-76
2020/12/10 07:46:53;;;;;;;26.33;11.45;;;19.80;47.80;;;;;;5053241;28;20072;-84
2020/12/10 07:49:45;;;;;;;22.58;12.80;;;19.60;47.70;;;;;;5055574;28;20458;-83
2020/12/10 07:52:11;;;;;;;21.25;12.55;;;19.50;45.30;;;;;;5063999;28;20779;-83
2020/12/10 07:54:47;;;;;;;19.77;11.70;;;19.50;46.60;;;;;;5052965;28;20071;-86
2020/12/10 07:57:23;;;;;;;23.65;12.30;;;19.50;45.80;;;;;;5056898;28;20032;-85
2020/12/10 07:59:55;;;;;;;23.58;11.90;;;19.80;45.30;;;;;;5074248;28;20048;-85
2020/12/10 08:02:30;;;;;;;19.38;11.38;;;20.10;45.10;;;;;;5073467;28;20064;-83
2020/12/10 08:04:56;;;;;;;16.88;10.57;;;20.30;45.00;;;;;;5041052;28;20112;-86
2020/12/10 08:07:22;;;;;;;17.02;10.95;;;20.40;44.90;;;;;;5057815;28;20515;-86
2020/12/10 08:09:49;;;;;;;21.00;11.23;;;20.60;44.90;;;;;;5076953;28;20044;-85
2020/12/10 08:12:16;;;;;;;19.23;10.80;;;20.70;44.70;;;;;;5025602;28;20506;-86
2020/12/10 08:15:04;;;;;;;21.65;11.05;;;20.80;44.60;;;;;;5061655;28;20052;-84
2020/12/10 08:17:31;;;;;;;22.67;10.52;;;20.90;44.40;;;;;;5075975;28;20028;-83
2020/12/10 08:19:57;;;;;;;23.00;10.02;;;21.00;44.20;;;;;;5060051;28;20101;-82
2020/12/10 08:22:24;;;;;;;17.02;10.10;;;21.20;44.10;;;;;;5057831;28;20101;-83
2020/12/10 08:25:16;;;;;;;16.88;10.20;;;21.30;43.90;;;;;;5034724;28;20525;-82
2020/12/10 08:27:42;;;;;;;14.75;9.63;;;21.40;43.50;;;;;;5077278;28;20036;-81
2020/12/10 08:30:10;;;;;;;18.10;9.80;;;21.40;43.70;;;;;;5063270;28;20044;-81
2020/12/10 08:32:48;;;;;;;13.75;9.40;;;21.50;43.60;;;;;;5059838;28;20032;-82
2020/12/10 08:35:15;;;;;;;17.05;9.70;;;21.50;43.60;;;;;;5076997;28;20032;-83
2020/12/10 08:38:02;;;;;;;17.55;10.45;;;21.60;43.50;;;;;;5076128;28;20505;-85
2020/12/10 08:40:28;;;;;;;18.23;9.85;;;21.70;43.50;;;;;;5064460;28;20126;-85
2020/12/10 08:42:54;;;;;;;17.65;9.93;;;21.60;43.70;;;;;;5031965;28;20535;-87
2020/12/10 08:45:44;;;;;;;18.80;10.00;;;21.60;43.70;;;;;;5076356;28;20384;-85
2020/12/10 08:48:15;;;;;;;16.30;10.20;;;21.50;43.80;;;;;;5060544;28;20052;-86
2020/12/10 08:51:01;;;;;;;15.63;9.07;;;21.50;43.70;;;;;;5066284;28;20043;-83
2020/12/10 08:53:30;;;;;;;19.98;9.57;;;21.50;44.10;;;;;;5060294;28;20388;-85
2020/12/10 08:55:58;;;;;;;16.52;10.13;;;21.30;44.30;;;;;;5079996;28;20055;-86
2020/12/10 08:58:44;;;;;;;17.70;9.52;;;21.30;44.40;;;;;;5061312;28;20040;-82
2020/12/10 09:01:10;;;;;;;22.13;10.23;;;21.40;44.60;;;;;;5099712;28;20106;-85
2020/12/10 09:03:38;;;;;;;18.25;9.75;;;21.30;44.60;;;;;;5082011;28;20088;-82
2020/12/10 09:06:32;;;;;;;19.00;10.02;;;21.30;44.60;;;;;;5082681;28;20044;-85
2020/12/10 09:09:01;;;;;;;15.80;9.00;;;21.30;44.20;;;;;;5051376;28;20032;-83
2020/12/10 09:11:27;;;;;;;16.88;8.93;;;21.30;44.50;;;;;;5090759;28;20078;-84
2020/12/10 09:13:58;;;;;;;16.42;9.43;;;21.40;44.40;;;;;;5065558;28;20112;-81
2020/12/10 09:16:26;;;;;;;14.80;10.15;;;21.50;45.00;;;;;;5045484;28;20472;-84
2020/12/10 09:19:29;;;;;;;13.65;9.10;;;21.50;44.30;;;;;;5061977;28;20119;-84
2020/12/10 09:21:55;;;;;;;16.55;9.07;;;21.50;44.00;;;;;;5110356;28;20119;-85
2020/12/10 09:24:22;;;;;;;14.23;9.30;;;21.50;44.30;;;;;;5074759;28;20122;-86
2020/12/10 09:26:56;;;;;;;14.32;9.38;;;21.60;44.20;;;;;;5058096;28;20135;-82
2020/12/10 09:29:42;;;;;;;15.02;9.95;;;21.70;44.10;;;;;;5076557;28;20512;-84
2020/12/10 09:32:08;;;;;;;16.92;9.90;;;21.50;43.80;;;;;;5074535;28;20222;-83
2020/12/10 09:34:33;;;;;;;19.67;9.80;;;21.50;43.60;;;;;;5076770;28;20053;-85
2020/12/10 09:36:59;;;;;;;15.80;9.20;;;21.60;43.70;;;;;;5059061;28;20052;-82
2020/12/10 09:39:46;;;;;;;14.38;9.40;;;21.60;43.70;;;;;;5076658;28;20392;-84
2020/12/10 09:42:12;;;;;;;20.30;9.07;;;21.50;43.90;;;;;;5091338;28;20089;-81
2020/12/10 09:44:58;;;;;;;18.23;9.65;;;21.50;44.10;;;;;;5090173;28;20157;-82
2020/12/10 09:47:47;;;;;;;14.20;9.50;;;21.40;44.40;;;;;;5051286;28;20372;-84
2020/12/10 09:50:36;;;;;;;14.52;9.45;;;21.40;44.40;;;;;;5086281;28;20052;-87
2020/12/10 09:58:20;;;;;;;15.82;9.45;;;21.30;44.80;;;;;;5059794;28;20040;-84
2020/12/10 10:01:08;;;;;;;21.25;8.80;;;21.20;44.90;;;;;;5051461;28;20044;-85
2020/12/10 10:03:34;;;;;;;17.38;8.82;;;21.20;45.00;;;;;;5043102;28;20135;-82
2020/12/10 10:06:20;;;;;;;17.38;10.02;;;21.20;45.20;;;;;;5050430;28;20040;-84
2020/12/10 10:08:46;;;;;;;16.23;9.52;;;21.10;45.10;;;;;;5053816;28;20117;-86
2020/12/10 10:11:33;;;;;;;14.15;9.32;;;21.10;45.30;;;;;;5045736;28;20043;-83
2020/12/10 10:14:01;;;;;;;14.98;9.43;;;21.10;45.60;;;;;;5040540;28;20436;-85
2020/12/10 10:16:30;;;;;;;15.52;8.85;;;21.00;45.50;;;;;;5058564;28;20031;-86
2020/12/10 10:18:56;;;;;;;13.43;8.55;;;20.90;45.70;;;;;;5057294;28;20506;-86
2020/12/10 10:21:27;;;;;;;23.15;9.77;;;20.80;45.80;;;;;;5072414;28;20048;-81
2020/12/10 10:23:59;;;;;;;24.92;12.30;;;20.70;46.00;;;;;;5089383;28;20040;-83
2020/12/10 10:26:28;;;;;;;19.92;12.25;;;20.60;44.90;;;;;;5058084;28;20078;-82
2020/12/10 10:28:59;;;;;;;20.42;11.48;;;20.50;44.40;;;;;;5057973;28;20108;-82
2020/12/10 10:31:25;;;;;;;20.77;12.07;;;20.30;44.30;;;;;;5055167;28;20444;-80
2020/12/10 10:33:51;;;;;;;22.15;12.73;;;20.20;44.30;;;;;;5056280;28;20052;-80
2020/12/10 10:36:20;;;;;;;18.73;12.15;;;20.00;44.20;;;;;;5054554;28;20101;-83
2020/12/10 10:38:48;;;;;;;20.38;12.32;;;20.00;44.20;;;;;;5056306;28;20097;-80
2020/12/10 10:41:13;;;;;;;18.90;10.90;;;19.90;44.50;;;;;;5073607;28;20055;-78
2020/12/10 10:43:39;;;;;;;17.73;11.63;;;19.80;44.60;;;;;;5074419;28;20369;-79
2020/12/10 10:46:32;;;;;;;21.02;11.85;;;19.50;44.90;;;;;;5049100;28;20047;-83
2020/12/10 10:49:18;;;;;;;21.45;11.65;;;19.50;44.70;;;;;;5074634;28;20407;-82
2020/12/10 10:52:04;;;;;;;19.48;11.43;;;19.70;44.60;;;;;;5063586;28;20059;-82
2020/12/10 10:54:49;;;;;;;21.40;12.18;;;19.60;45.20;;;;;;5091081;28;20052;-81
2020/12/10 10:57:17;;;;;;;17.98;11.38;;;19.50;45.50;;;;;;5058162;28;20368;-84
2020/12/10 10:59:43;;;;;;;18.77;10.65;;;19.50;45.80;;;;;;5057888;28;20046;-84
2020/12/10 11:02:29;;;;;;;16.83;10.32;;;19.50;45.80;;;;;;5043749;28;20105;-83
2020/12/10 11:05:14;;;;;;;18.15;10.55;;;19.50;45.90;;;;;;5034303;28;20040;-86
2020/12/10 11:07:41;;;;;;;18.08;10.57;;;19.50;46.10;;;;;;5057104;28;20127;-82
2020/12/10 11:10:08;;;;;;;18.20;10.52;;;19.50;46.30;;;;;;5074125;28;20131;-82
2020/12/10 11:12:36;;;;;;;17.63;10.45;;;19.40;46.60;;;;;;5056942;28;20455;-86
2020/12/10 11:15:22;;;;;;;17.73;10.73;;;19.50;46.70;;;;;;5076631;28;20063;-81
2020/12/10 11:17:48;;;;;;;16.30;10.48;;;19.40;46.80;;;;;;5090983;28;20041;-81
2020/12/10 11:20:16;;;;;;;16.55;10.88;;;19.30;47.00;;;;;;5090091;28;20032;-82
2020/12/10 11:22:46;;;;;;;18.83;9.60;;;19.30;47.20;;;;;;5052581;28;20068;-81
2020/12/10 11:25:12;;;;;;;19.35;10.02;;;19.20;47.20;;;;;;5058422;28;20048;-81
2020/12/10 11:27:59;;;;;;;17.05;10.32;;;19.30;47.30;;;;;;5057682;28;20048;-80
2020/12/10 11:30:24;;;;;;;15.02;10.02;;;19.30;47.30;;;;;;5015217;28;20049;-81
2020/12/10 11:32:53;;;;;;;13.73;9.30;;;19.30;47.10;;;;;;5013646;28;20489;-81
2020/12/10 11:35:24;;;;;;;16.55;9.93;;;19.40;47.10;;;;;;5013354;28;20129;-81
2020/12/10 11:38:11;;;;;;;15.35;10.05;;;19.30;47.10;;;;;;5003208;28;20131;-82
2020/12/10 11:40:57;;;;;;;16.15;9.27;;;19.20;47.10;;;;;;5000205;28;20071;-81
2020/12/10 11:43:22;;;;;;;16.40;9.73;;;19.20;47.40;;;;;;5011136;28;20497;-80
2020/12/10 11:45:51;;;;;;;14.05;9.73;;;19.20;47.30;;;;;;5028071;28;20045;-82
2020/12/10 11:48:16;;;;;;;16.25;9.18;;;19.20;47.10;;;;;;5030115;28;20048;-82
2020/12/10 11:50:43;;;;;;;15.55;9.80;;;19.20;47.20;;;;;;5010401;28;20414;-80
2020/12/10 11:53:09;;;;;;;15.95;9.65;;;19.10;47.30;;;;;;4999915;28;20452;-81
2020/12/10 11:55:36;;;;;;;15.07;9.82;;;19.00;47.30;;;;;;5022071;28;20045;-83
2020/12/10 11:58:22;;;;;;;17.48;10.50;;;19.00;47.60;;;;;;4996110;28;20108;-85
2020/12/10 12:00:47;;;;;;;13.98;9.88;;;18.90;47.70;;;;;;5012876;28;20049;-82
2020/12/10 12:03:13;;;;;;;17.27;9.45;;;18.80;47.90;;;;;;5040531;28;20049;-82
2020/12/10 12:05:39;;;;;;;15.95;9.20;;;18.70;48.10;;;;;;5040377;28;20132;-81
2020/12/10 12:08:46;;;;;;;16.08;9.80;;;18.70;48.30;;;;;;5039356;28;20055;-86
2020/12/10 12:11:11;;;;;;;19.17;9.88;;;18.70;48.50;;;;;;4989947;28;20105;-82
2020/12/10 12:13:38;;;;;;;17.35;9.88;;;18.70;48.40;;;;;;4955741;28;20481;-82
2020/12/10 12:16:06;;;;;;;16.58;10.60;;;18.60;48.60;;;;;;4982199;28;20060;-80
2020/12/10 12:18:52;;;;;;;18.33;10.38;;;18.60;48.70;;;;;;4950090;28;20574;-80
2020/12/10 12:21:39;;;;;;;16.40;9.60;;;18.60;49.00;;;;;;4970715;28;20158;-80
2020/12/10 12:24:25;;;;;;;13.23;9.13;;;18.50;49.20;;;;;;4950370;28;20514;-81
2020/12/10 12:27:13;;;;;;;16.50;10.25;;;18.50;49.30;;;;;;4949375;28;20069;-80
2020/12/10 12:29:40;;;;;;;16.77;10.38;;;18.50;49.50;;;;;;4947821;28;20043;-80
2020/12/10 12:32:06;;;;;;;20.70;10.27;;;18.40;49.70;;;;;;4942942;29;20051;-80
2020/12/10 12:34:32;;;;;;;17.02;9.38;;;18.40;49.90;;;;;;4918428;28;20507;-81
2020/12/10 12:36:59;;;;;;;17.40;9.48;;;18.30;50.00;;;;;;4950006;29;20102;-82
2020/12/10 12:40:05;;;;;;;13.75;9.57;;;18.20;50.10;;;;;;4919767;28;20195;-84
2020/12/10 12:42:30;;;;;;;13.38;8.88;;;18.30;50.60;;;;;;4908340;29;20048;-82
2020/12/10 12:45:19;;;;;;;14.20;9.35;;;18.20;50.50;;;;;;4917893;29;20044;-85
2020/12/10 12:47:46;;;;;;;17.98;9.60;;;18.20;50.70;;;;;;4893478;29;20115;-83
2020/12/10 12:50:32;;;;;;;14.32;9.57;;;18.20;50.90;;;;;;4877368;29;20469;-81
2020/12/10 12:53:17;;;;;;;16.85;9.13;;;18.20;51.10;;;;;;4852125;29;20061;-85
2020/12/10 12:55:44;;;;;;;14.95;9.45;;;18.20;51.30;;;;;;4874257;29;20065;-88
2020/12/10 12:58:12;;;;;;;15.07;9.85;;;18.10;51.40;;;;;;4861207;29;20112;-85
2020/12/10 13:00:38;;;;;;;15.02;9.10;;;18.10;51.50;;;;;;4881988;29;20083;-86
2020/12/10 13:03:11;;;;;;;15.23;9.82;;;18.10;51.60;;;;;;4987266;28;20054;-81
2020/12/10 13:05:37;;;;;;;17.60;10.15;;;18.10;51.50;;;;;;4989077;28;20113;-80
2020/12/10 13:08:03;;;;;;;17.42;10.90;;;18.10;51.10;;;;;;4997203;28;20047;-83
2020/12/10 13:10:49;;;;;;;18.00;10.25;;;18.00;50.60;;;;;;4945882;28;20050;-82
2020/12/10 13:13:22;;;;;;;16.45;10.55;;;18.00;50.60;;;;;;4996584;28;20056;-82
2020/12/10 13:16:08;;;;;;;16.35;10.43;;;18.00;50.70;;;;;;5019996;28;20049;-82
2020/12/10 13:18:55;;;;;;;16.27;10.70;;;18.00;50.80;;;;;;5033707;28;20048;-84
2020/12/10 13:21:41;;;;;;;15.15;9.82;;;17.90;50.80;;;;;;5009850;28;20472;-82
2020/12/10 13:25:00;;;;;;;14.60;10.32;;;17.90;51.00;;;;;;4994396;28;20056;-84
2020/12/10 13:27:26;;;;;;;17.25;9.90;;;18.00;51.50;;;;;;4998332;28;20050;-81
2020/12/10 13:29:52;;;;;;;17.30;10.02;;;17.90;51.30;;;;;;4983233;28;20150;-81
2020/12/10 13:32:17;;;;;;;15.75;10.15;;;17.90;51.40;;;;;;5000064;28;20047;-83
2020/12/10 13:34:44;;;;;;;18.98;10.13;;;17.90;51.60;;;;;;4981833;28;20050;-81
2020/12/10 13:37:30;;;;;;;18.08;10.15;;;17.90;51.70;;;;;;4985843;28;20049;-83
2020/12/10 13:39:58;;;;;;;17.63;10.23;;;17.80;51.70;;;;;;5020363;28;20041;-81
2020/12/10 13:42:24;;;;;;;16.50;10.30;;;17.80;52.00;;;;;;5005518;28;20053;-84
2020/12/10 13:45:09;;;;;;;15.90;9.68;;;17.80;52.00;;;;;;4967813;28;20517;-85
2020/12/10 13:48:00;;;;;;;14.57;10.15;;;17.80;52.10;;;;;;4984857;28;20050;-83
2020/12/10 13:50:46;;;;;;;14.35;10.07;;;17.80;52.30;;;;;;4971880;28;20157;-84
2020/12/10 13:53:12;;;;;;;18.40;10.70;;;17.80;52.40;;;;;;4946494;28;20525;-84